Time,TemperatureF,DewpointF,PressureIn,WindDirection,WindDirectionDegrees,WindSpeedMPH,WindSpeedGustMPH,Humidity,HourlyPrecipIn,Conditions,Clouds,dailyrainin,SoftwareType,DateUTC
2013-07-14 00:02:00,73.0,66.0,-100.00,ESE,115,2.0,-999.0,79,0.00,,,-99.99,,2013-07-14 04:02:00,
2013-07-14 00:11:00,73.0,67.0,-100.00,North,-999,-999.0,-999.0,81,0.00,,,-99.99,,2013-07-14 04:11:00,
2013-07-14 00:22:00,73.0,67.0,-100.00,North,-999,-999.0,-999.0,81,0.00,,,-99.99,,2013-07-14 04:22:00,
2013-07-14 00:32:00,73.0,67.0,-100.00,North,-999,-999.0,-999.0,81,0.00,,,-99.99,,2013-07-14 04:32:00,
2013-07-14 00:42:00,73.0,67.0,-100.00,North,-999,-999.0,-999.0,81,0.00,,,-99.99,,2013-07-14 04:42:00,
2013-07-14 01:23:00,74.0,67.0,-100.00,NE,55,5.0,8.0,79,0.00,,,-99.99,,2013-07-14 05:23:00,
2013-07-14 01:32:00,74.0,67.0,-100.00,NE,45,4.0,7.0,79,0.00,,,-99.99,,2013-07-14 05:32:00,
2013-07-14 01:43:00,74.0,67.0,-100.00,NE,40,6.0,9.0,80,0.00,,,-99.99,,2013-07-14 05:43:00,
2013-07-14 01:53:00,73.0,67.0,-100.00,ENE,60,6.0,10.0,81,0.00,,,-99.99,,2013-07-14 05:53:00,
2013-07-14 02:01:00,73.0,68.0,-100.00,NE,40,6.0,8.0,82,0.00,,,-99.99,,2013-07-14 06:01:00,
2013-07-14 02:11:00,73.0,68.0,-100.00,NE,50,6.0,9.0,83,0.00,,,-99.99,,2013-07-14 06:11:00,
2013-07-14 02:22:00,73.0,68.0,-100.00,NE,55,6.0,9.0,85,0.00,,,-99.99,,2013-07-14 06:22:00,
2013-07-14 02:42:00,73.0,69.0,-100.00,NE,40,7.0,10.0,85,0.00,,,-99.99,,2013-07-14 06:42:00,
2013-07-14 02:53:00,73.0,69.0,-100.00,ENE,60,7.0,11.0,86,0.00,,,-99.99,,2013-07-14 06:53:00,
2013-07-14 03:02:00,73.0,69.0,-100.00,ENE,65,6.0,9.0,87,0.00,,,-99.99,,2013-07-14 07:02:00,
2013-07-14 03:12:00,73.0,69.0,-100.00,ENE,60,6.0,9.0,87,0.00,,,-99.99,,2013-07-14 07:12:00,
2013-07-14 03:22:00,73.0,69.0,-100.00,ENE,75,5.0,9.0,87,0.00,,,-99.99,,2013-07-14 07:22:00,
2013-07-14 03:33:00,73.0,69.0,-100.00,East,80,6.0,8.0,88,0.00,,,-99.99,,2013-07-14 07:33:00,
2013-07-14 03:43:00,72.0,69.0,-100.00,East,85,6.0,9.0,89,0.00,,,-99.99,,2013-07-14 07:43:00,
2013-07-14 03:53:00,72.0,69.0,-100.00,East,80,6.0,8.0,89,0.00,,,-99.99,,2013-07-14 07:53:00,
2013-07-14 04:01:00,72.0,68.0,-100.00,East,80,6.0,7.0,88,0.00,,,-99.99,,2013-07-14 08:01:00,
2013-07-14 04:11:00,72.0,68.0,-100.00,East,85,6.0,7.0,87,0.00,,,-99.99,,2013-07-14 08:11:00,
2013-07-14 04:22:00,72.0,68.0,-100.00,East,80,4.0,7.0,87,0.00,,,-99.99,,2013-07-14 08:22:00,
2013-07-14 04:42:00,72.0,68.0,-100.00,East,80,3.0,4.0,86,0.00,,,-99.99,,2013-07-14 08:42:00,
2013-07-14 04:53:00,72.0,68.0,-100.00,East,80,1.0,4.0,86,1.10,,,-99.99,,2013-07-14 08:53:00,
2013-07-14 05:01:00,72.0,68.0,-100.00,NE,50,3.0,4.0,86,0.00,,,-99.99,,2013-07-14 09:01:00,
2013-07-14 05:11:00,72.0,68.0,-100.00,ENE,70,3.0,4.0,87,0.00,,,-99.99,,2013-07-14 09:11:00,
2013-07-14 05:22:00,72.0,68.0,-100.00,NE,45,3.0,4.0,87,0.00,,,-99.99,,2013-07-14 09:22:00,
2013-07-14 05:32:00,72.0,68.0,-100.00,NNE,25,3.0,4.0,87,0.00,,,-99.99,,2013-07-14 09:32:00,
2013-07-14 05:42:00,72.0,68.0,-100.00,North,10,3.0,4.0,88,0.00,,,-99.99,,2013-07-14 09:42:00,
2013-07-14 05:52:00,72.0,68.0,-100.00,North,10,3.0,4.0,87,0.00,,,-99.99,,2013-07-14 09:52:00,
2013-07-14 06:01:00,72.0,68.0,-100.00,NNE,25,6.0,7.0,86,0.00,,,-99.99,,2013-07-14 10:01:00,
2013-07-14 06:12:00,73.0,68.0,-100.00,NE,45,6.0,7.0,85,0.00,,,-99.99,,2013-07-14 10:12:00,
2013-07-14 06:22:00,73.0,68.0,-100.00,NE,40,5.0,7.0,84,0.00,,,-99.99,,2013-07-14 10:22:00,
2013-07-14 06:32:00,73.0,68.0,-100.00,ENE,65,2.0,7.0,85,0.00,,,-99.99,,2013-07-14 10:32:00,
2013-07-14 06:53:00,74.0,69.0,-100.00,NE,45,6.0,8.0,84,0.00,,,-99.99,,2013-07-14 10:53:00,
2013-07-14 07:02:00,74.0,70.0,-100.00,NE,35,6.0,7.0,87,0.00,,,-99.99,,2013-07-14 11:02:00,
2013-07-14 07:11:00,73.0,70.0,-100.00,NE,35,5.0,7.0,90,0.00,,,-99.99,,2013-07-14 11:11:00,
2013-07-14 07:22:00,74.0,71.0,-100.00,NE,45,7.0,10.0,91,0.00,,,-99.99,,2013-07-14 11:22:00,
2013-07-14 07:32:00,74.0,71.0,-100.00,NE,55,4.0,9.0,89,0.00,,,-99.99,,2013-07-14 11:32:00,
2013-07-14 07:43:00,74.0,71.0,-100.00,NE,55,4.0,7.0,89,0.00,,,-99.99,,2013-07-14 11:43:00,
2013-07-14 07:53:00,74.0,71.0,-100.00,NE,55,5.0,7.0,89,0.00,,,-99.99,,2013-07-14 11:53:00,
2013-07-14 08:02:00,75.0,71.0,-100.00,NE,50,2.0,7.0,88,0.00,,,-99.99,,2013-07-14 12:02:00,
2013-07-14 08:11:00,75.0,71.0,-100.00,NE,35,5.0,7.0,88,0.00,,,-99.99,,2013-07-14 12:11:00,
2013-07-14 08:22:00,76.0,71.0,-100.00,ENE,75,6.0,9.0,86,0.00,,,-99.99,,2013-07-14 12:22:00,
2013-07-14 08:33:00,76.0,71.0,-100.00,ENE,65,4.0,8.0,85,0.00,,,-99.99,,2013-07-14 12:33:00,
2013-07-14 08:43:00,76.0,71.0,-100.00,ENE,60,6.0,9.0,84,0.00,,,-99.99,,2013-07-14 12:43:00,
2013-07-14 08:52:00,76.0,71.0,-100.00,ENE,65,8.0,9.0,84,0.00,,,-99.99,,2013-07-14 12:52:00,
2013-07-14 09:01:00,77.0,71.0,-100.00,East,80,4.0,9.0,82,0.00,,,-99.99,,2013-07-14 13:01:00,
2013-07-14 09:11:00,77.0,71.0,-100.00,SE,135,2.0,7.0,82,0.00,,,-99.99,,2013-07-14 13:11:00,
2013-07-14 09:22:00,77.0,71.0,-100.00,ENE,60,4.0,6.0,81,0.00,,,-99.99,,2013-07-14 13:22:00,
2013-07-14 09:32:00,78.0,71.0,-100.00,East,85,4.0,7.0,80,0.00,,,-99.99,,2013-07-14 13:32:00,
2013-07-14 09:42:00,78.0,71.0,-100.00,NE,55,4.0,7.0,80,0.00,,,-99.99,,2013-07-14 13:42:00,
2013-07-14 09:53:00,78.0,71.0,-100.00,ENE,60,7.0,9.0,78,0.00,,,-99.99,,2013-07-14 13:53:00,
2013-07-14 10:02:00,79.0,71.0,-100.00,East,85,6.0,10.0,78,0.00,,,-99.99,,2013-07-14 14:02:00,
2013-07-14 10:11:00,79.0,71.0,-100.00,East,85,6.0,10.0,78,0.00,,,-99.99,,2013-07-14 14:11:00,
2013-07-14 10:23:00,79.0,71.0,-100.00,SE,130,4.0,-999.0,76,0.00,,,-99.99,,2013-07-14 14:23:00,
2013-07-14 10:33:00,79.0,71.0,-100.00,SE,130,4.0,-999.0,76,0.00,,,-99.99,,2013-07-14 14:33:00,
2013-07-14 10:43:00,79.0,71.0,-100.00,SE,130,4.0,-999.0,76,0.00,,,-99.99,,2013-07-14 14:43:00,
2013-07-14 10:50:00,80.0,70.0,-100.00,NNE,25,6.0,-999.0,70,0.00,,,-99.99,,2013-07-14 14:50:00,
2013-07-14 10:53:00,80.0,69.0,-100.00,ENE,65,6.0,-999.0,67,0.00,,,-99.99,,2013-07-14 14:53:00,
2013-07-14 11:01:00,80.0,69.0,-100.00,ENE,65,6.0,-999.0,67,0.00,,,-99.99,,2013-07-14 15:01:00,
2013-07-14 11:12:00,80.0,70.0,-100.00,NNE,25,6.0,-999.0,70,0.00,,,-99.99,,2013-07-14 15:12:00,
2013-07-14 11:22:00,80.0,70.0,-100.00,NNE,25,6.0,-999.0,70,0.00,,,-99.99,,2013-07-14 15:22:00,
2013-07-14 11:32:00,80.0,70.0,-100.00,NNE,25,6.0,-999.0,70,0.00,,,-99.99,,2013-07-14 15:32:00,
2013-07-14 11:42:00,80.0,70.0,-100.00,NNE,25,6.0,-999.0,70,0.00,,,-99.99,,2013-07-14 15:42:00,
2013-07-14 13:53:00,79.0,70.0,-100.00,NNE,30,11.0,17.0,73,0.00,,,-99.99,,2013-07-14 17:53:00,
2013-07-14 14:01:00,80.0,69.0,-100.00,NNE,30,11.0,16.0,70,0.00,,,-99.99,,2013-07-14 18:01:00,
2013-07-14 14:11:00,80.0,68.0,-100.00,NNE,30,11.0,18.0,67,0.00,,,-99.99,,2013-07-14 18:11:00,
2013-07-14 14:22:00,81.0,69.0,-100.00,NE,45,10.0,16.0,68,0.00,,,-99.99,,2013-07-14 18:22:00,
2013-07-14 14:32:00,81.0,68.0,-100.00,NNE,30,12.0,17.0,65,0.00,,,-99.99,,2013-07-14 18:32:00,
2013-07-14 14:42:00,80.0,69.0,-100.00,NE,45,10.0,16.0,69,0.00,,,-99.99,,2013-07-14 18:42:00,
2013-07-14 14:52:00,81.0,70.0,-100.00,NNE,30,9.0,15.0,68,0.00,,,-99.99,,2013-07-14 18:52:00,
2013-07-14 15:02:00,81.0,69.0,-100.00,NE,55,8.0,17.0,68,0.00,,,-99.99,,2013-07-14 19:02:00,
2013-07-14 15:12:00,80.0,70.0,-100.00,NE,35,10.0,15.0,72,0.00,,,-99.99,,2013-07-14 19:12:00,
2013-07-14 15:22:00,80.0,70.0,-100.00,NNE,25,11.0,16.0,73,0.00,,,-99.99,,2013-07-14 19:22:00,
2013-07-14 15:32:00,80.0,70.0,-100.00,NNE,15,12.0,15.0,73,0.00,,,-99.99,,2013-07-14 19:32:00,
2013-07-14 15:43:00,80.0,71.0,-100.00,NNE,25,11.0,15.0,74,0.00,,,-99.99,,2013-07-14 19:43:00,
2013-07-14 15:53:00,80.0,70.0,-100.00,NNE,25,12.0,16.0,72,0.00,,,-99.99,,2013-07-14 19:53:00,
2013-07-14 16:02:00,79.0,70.0,-100.00,NNE,25,13.0,16.0,74,0.00,,,-99.99,,2013-07-14 20:02:00,
2013-07-14 16:11:00,79.0,71.0,-100.00,NNE,30,12.0,17.0,76,0.00,,,-99.99,,2013-07-14 20:11:00,
2013-07-14 16:22:00,79.0,71.0,-100.00,NNE,25,12.0,17.0,75,0.00,,,-99.99,,2013-07-14 20:22:00,
2013-07-14 16:32:00,80.0,70.0,-100.00,NNE,30,12.0,16.0,72,0.00,,,-99.99,,2013-07-14 20:32:00,
2013-07-14 16:43:00,79.0,70.0,-100.00,NNE,30,11.0,16.0,73,0.00,,,-99.99,,2013-07-14 20:43:00,
2013-07-14 16:53:00,80.0,70.0,-100.00,NNE,25,11.0,14.0,71,0.00,,,-99.99,,2013-07-14 20:53:00,
2013-07-14 17:02:00,80.0,70.0,-100.00,NE,35,12.0,14.0,73,0.00,,,-99.99,,2013-07-14 21:02:00,
2013-07-14 17:11:00,80.0,70.0,-100.00,NNE,30,11.0,14.0,73,0.00,,,-99.99,,2013-07-14 21:11:00,
2013-07-14 17:22:00,80.0,71.0,-100.00,NNE,25,10.0,14.0,72,0.00,,,-99.99,,2013-07-14 21:22:00,
2013-07-14 17:32:00,80.0,71.0,-100.00,NNE,30,10.0,12.0,73,0.00,,,-99.99,,2013-07-14 21:32:00,
2013-07-14 17:43:00,81.0,71.0,-100.00,North,-999,-999.0,-999.0,72,0.00,,,-99.99,,2013-07-14 21:43:00,
2013-07-14 17:52:00,81.0,71.0,-100.00,North,-999,-999.0,-999.0,72,0.00,,,-99.99,,2013-07-14 21:52:00,
2013-07-14 18:01:00,81.0,71.0,-100.00,North,-999,-999.0,-999.0,72,0.00,,,-99.99,,2013-07-14 22:01:00,
2013-07-14 18:11:00,82.0,69.0,-100.00,ENE,65,8.0,-999.0,64,0.00,,,-99.99,,2013-07-14 22:11:00,
2013-07-14 18:22:00,83.0,70.0,-100.00,ENE,65,4.0,12.0,66,0.00,,,-99.99,,2013-07-14 22:22:00,
2013-07-14 18:32:00,83.0,70.0,-100.00,ENE,75,2.0,12.0,65,0.00,,,-99.99,,2013-07-14 22:32:00,
2013-07-14 18:42:00,83.0,69.0,-100.00,ENE,60,7.0,11.0,64,0.00,,,-99.99,,2013-07-14 22:42:00,
2013-07-14 18:53:00,83.0,70.0,-100.00,NNE,30,7.0,11.0,65,0.00,,,-99.99,,2013-07-14 22:53:00,
2013-07-14 19:01:00,83.0,71.0,-100.00,NE,45,7.0,12.0,67,0.00,,,-99.99,,2013-07-14 23:01:00,
2013-07-14 19:11:00,83.0,71.0,-100.00,East,80,7.0,11.0,66,0.00,,,-99.99,,2013-07-14 23:11:00,
2013-07-14 19:22:00,83.0,71.0,-100.00,ENE,70,7.0,12.0,67,0.00,,,-99.99,,2013-07-14 23:22:00,
2013-07-14 19:32:00,83.0,71.0,-100.00,ENE,65,8.0,11.0,68,0.00,,,-99.99,,2013-07-14 23:32:00,
2013-07-14 19:42:00,83.0,71.0,-100.00,ENE,65,8.0,11.0,68,0.00,,,-99.99,,2013-07-14 23:42:00,
2013-07-14 19:53:00,83.0,71.0,-100.00,East,85,8.0,-999.0,67,0.00,,,-99.99,,2013-07-14 23:53:00,
2013-07-14 20:02:00,82.0,71.0,-100.00,East,90,5.0,10.0,70,0.00,,,-99.99,,2013-07-15 00:02:00,
2013-07-14 20:11:00,82.0,70.0,-100.00,East,80,6.0,10.0,69,0.00,,,-99.99,,2013-07-15 00:11:00,
2013-07-14 20:22:00,81.0,70.0,-100.00,ENE,65,9.0,13.0,69,0.00,,,-99.99,,2013-07-15 00:22:00,
2013-07-14 20:32:00,81.0,70.0,-100.00,East,85,6.0,12.0,70,0.00,,,-99.99,,2013-07-15 00:32:00,
2013-07-14 20:43:00,81.0,70.0,-100.00,East,85,6.0,12.0,71,0.00,,,-99.99,,2013-07-15 00:43:00,
2013-07-14 20:53:00,81.0,71.0,-100.00,East,85,6.0,10.0,71,0.00,,,-99.99,,2013-07-15 00:53:00,
2013-07-14 21:01:00,80.0,70.0,-100.00,East,85,9.0,14.0,70,0.00,,,-99.99,,2013-07-15 01:01:00,
2013-07-14 21:11:00,80.0,70.0,-100.00,East,90,6.0,12.0,70,0.00,,,-99.99,,2013-07-15 01:11:00,
2013-07-14 21:22:00,79.0,70.0,-100.00,East,80,7.0,9.0,73,0.00,,,-99.99,,2013-07-15 01:22:00,
2013-07-14 21:32:00,79.0,71.0,-100.00,East,80,7.0,10.0,75,0.00,,,-99.99,,2013-07-15 01:32:00,
2013-07-14 21:43:00,79.0,71.0,-100.00,East,85,4.0,9.0,76,0.00,,,-99.99,,2013-07-15 01:43:00,
2013-07-14 21:53:00,78.0,71.0,-100.00,East,85,6.0,9.0,78,0.00,,,-99.99,,2013-07-15 01:53:00,
2013-07-14 22:02:00,78.0,71.0,-100.00,East,90,5.0,7.0,79,0.00,,,-99.99,,2013-07-15 02:02:00,
2013-07-14 22:11:00,78.0,71.0,-100.00,East,85,6.0,9.0,78,0.00,,,-99.99,,2013-07-15 02:11:00,
2013-07-14 22:22:00,78.0,70.0,-100.00,East,90,6.0,9.0,76,0.00,,,-99.99,,2013-07-15 02:22:00,
2013-07-14 22:32:00,78.0,70.0,-100.00,East,90,4.0,9.0,75,0.00,,,-99.99,,2013-07-15 02:32:00,
2013-07-14 22:42:00,78.0,69.0,-100.00,East,85,6.0,9.0,74,0.00,,,-99.99,,2013-07-15 02:42:00,
2013-07-14 22:53:00,78.0,69.0,-100.00,East,80,4.0,7.0,75,0.00,,,-99.99,,2013-07-15 02:53:00,
2013-07-14 23:02:00,78.0,69.0,-100.00,East,90,4.0,7.0,75,0.00,,,-99.99,,2013-07-15 03:02:00,
2013-07-14 23:11:00,78.0,69.0,-100.00,East,85,3.0,6.0,75,0.00,,,-99.99,,2013-07-15 03:11:00,
2013-07-14 23:22:00,78.0,69.0,-100.00,East,85,4.0,7.0,75,0.00,,,-99.99,,2013-07-15 03:22:00,
2013-07-14 23:32:00,77.0,69.0,-100.00,East,80,4.0,-999.0,76,0.00,,,-99.99,,2013-07-15 03:32:00,
2013-07-14 23:43:00,77.0,69.0,-100.00,East,80,6.0,8.0,76,0.00,,,-99.99,,2013-07-15 03:43:00,
2013-07-14 23:53:00,77.0,69.0,-100.00,East,80,4.0,7.0,77,0.00,,,-99.99,,2013-07-15 03:53:00,